sensor_id;sensor_type;location;lat;lon;timestamp;pressure;altitude;pressure_sealevel;temperature;humidity
47524;BME280;33253;42.144;25.884;2023-02-13T00:00:08;102563.00;;;-1.72;97.49
47524;BME280;33253;42.144;25.884;2023-02-13T00:02:34;102559.94;;;-1.63;96.49
47524;BME280;33253;42.144;25.884;2023-02-13T00:05:00;102566.13;;;-1.46;94.80
47524;BME280;33253;42.144;25.884;2023-02-13T00:07:25;102575.56;;;-1.31;92.99
47524;BME280;33253;42.144;25.884;2023-02-13T00:09:51;102568.84;;;-1.23;91.65
47524;BME280;33253;42.144;25.884;2023-02-13T00:12:36;102569.19;;;-1.20;90.77
47524;BME280;33253;42.144;25.884;2023-02-13T00:15:03;102567.03;;;-1.17;89.89
47524;BME280;33253;42.144;25.884;2023-02-13T00:17:28;102569.97;;;-1.21;89.37
47524;BME280;33253;42.144;25.884;2023-02-13T00:19:54;102569.91;;;-1.42;90.56
47524;BME280;33253;42.144;25.884;2023-02-13T00:22:19;102565.22;;;-1.54;92.33
47524;BME280;33253;42.144;25.884;2023-02-13T00:24:45;102570.28;;;-1.54;93.92
47524;BME280;33253;42.144;25.884;2023-02-13T00:27:10;102557.59;;;-1.68;94.34
47524;BME280;33253;42.144;25.884;2023-02-13T00:29:36;102563.38;;;-1.62;94.51
47524;BME280;33253;42.144;25.884;2023-02-13T00:32:01;102565.41;;;-1.59;93.79
47524;BME280;33253;42.144;25.884;2023-02-13T00:34:27;102536.94;;;-1.79;92.72
47524;BME280;33253;42.144;25.884;2023-02-13T00:36:53;102480.66;;;-2.05;92.93
47524;BME280;33253;42.144;25.884;2023-02-13T00:39:18;102559.94;;;-1.70;92.72
47524;BME280;33253;42.144;25.884;2023-02-13T00:41:44;102565.91;;;-1.62;92.41
47524;BME280;33253;42.144;25.884;2023-02-13T00:47:08;102565.72;;;-1.64;90.63
47524;BME280;33253;42.144;25.884;2023-02-13T00:49:34;102563.56;;;-1.75;91.46
47524;BME280;33253;42.144;25.884;2023-02-13T00:51:59;102563.03;;;-1.65;92.27
47524;BME280;33253;42.144;25.884;2023-02-13T00:54:24;102547.28;;;-1.63;92.42
47524;BME280;33253;42.144;25.884;2023-02-13T00:56:50;102573.31;;;-1.71;91.15
47524;BME280;33253;42.144;25.884;2023-02-13T00:59:15;102563.19;;;-1.71;91.62
47524;BME280;33253;42.144;25.884;2023-02-13T01:01:41;102568.28;;;-1.64;90.84
47524;BME280;33253;42.144;25.884;2023-02-13T01:04:07;102569.88;;;-1.71;89.72
47524;BME280;33253;42.144;25.884;2023-02-13T01:06:32;102561.38;;;-1.79;90.14
47524;BME280;33253;42.144;25.884;2023-02-13T01:08:58;102573.81;;;-1.95;89.61
47524;BME280;33253;42.144;25.884;2023-02-13T01:11:23;102578.53;;;-1.84;89.75
47524;BME280;33253;42.144;25.884;2023-02-13T01:13:49;102567.00;;;-1.74;88.84
47524;BME280;33253;42.144;25.884;2023-02-13T01:16:14;102565.91;;;-2.33;90.14
47524;BME280;33253;42.144;25.884;2023-02-13T01:18:42;102565.25;;;-2.52;92.76
47524;BME280;33253;42.144;25.884;2023-02-13T01:21:14;102582.53;;;-2.62;94.93
47524;BME280;33253;42.144;25.884;2023-02-13T01:23:40;102559.84;;;-2.82;95.57
47524;BME280;33253;42.144;25.884;2023-02-13T01:26:07;102565.09;;;-2.81;96.18
47524;BME280;33253;42.144;25.884;2023-02-13T01:28:34;102574.06;;;-2.90;96.68
47524;BME280;33253;42.144;25.884;2023-02-13T01:31:00;102592.56;;;-2.77;97.25
47524;BME280;33253;42.144;25.884;2023-02-13T01:33:27;102531.22;;;-2.96;96.27
47524;BME280;33253;42.144;25.884;2023-02-13T01:35:53;102581.66;;;-2.63;95.94
47524;BME280;33253;42.144;25.884;2023-02-13T01:38:18;102555.59;;;-2.69;94.01
47524;BME280;33253;42.144;25.884;2023-02-13T01:40:52;102587.25;;;-2.58;93.20
47524;BME280;33253;42.144;25.884;2023-02-13T01:43:18;102587.06;;;-2.60;93.19
47524;BME280;33253;42.144;25.884;2023-02-13T01:45:50;102579.59;;;-2.72;92.80
47524;BME280;33253;42.144;25.884;2023-02-13T01:48:19;102580.31;;;-2.73;92.97
47524;BME280;33253;42.144;25.884;2023-02-13T01:50:56;102588.53;;;-2.62;92.35
47524;BME280;33253;42.144;25.884;2023-02-13T01:53:29;102578.53;;;-2.67;90.80
47524;BME280;33253;42.144;25.884;2023-02-13T01:56:10;102582.84;;;-3.21;93.20
47524;BME280;33253;42.144;25.884;2023-02-13T01:58:39;102586.97;;;-3.42;95.75
47524;BME280;33253;42.144;25.884;2023-02-13T02:01:07;102587.16;;;-3.60;97.42
47524;BME280;33253;42.144;25.884;2023-02-13T02:03:37;102586.44;;;-3.79;98.99
47524;BME280;33253;42.144;25.884;2023-02-13T02:06:06;102587.75;;;-3.76;99.01
47524;BME280;33253;42.144;25.884;2023-02-13T02:08:35;102581.97;;;-3.75;98.66
47524;BME280;33253;42.144;25.884;2023-02-13T02:11:08;102600.53;;;-3.74;99.21
47524;BME280;33253;42.144;25.884;2023-02-13T02:13:36;102597.59;;;-3.97;99.91
47524;BME280;33253;42.144;25.884;2023-02-13T02:16:01;102606.47;;;-4.07;100.00
47524;BME280;33253;42.144;25.884;2023-02-13T02:18:27;102598.53;;;-4.10;100.00
47524;BME280;33253;42.144;25.884;2023-02-13T02:39:31;102634.97;;;-4.33;100.00
47524;BME280;33253;42.144;25.884;2023-02-13T02:47:35;102633.97;;;-4.28;100.00
47524;BME280;33253;42.144;25.884;2023-02-13T02:50:37;102629.00;;;-4.34;100.00
47524;BME280;33253;42.144;25.884;2023-02-13T02:56:06;102638.81;;;-4.30;100.00
47524;BME280;33253;42.144;25.884;2023-02-13T02:59:00;102614.19;;;-4.25;100.00
47524;BME280;33253;42.144;25.884;2023-02-13T03:01:47;102639.84;;;-3.89;100.00
47524;BME280;33253;42.144;25.884;2023-02-13T03:04:53;102639.09;;;-3.75;100.00
47524;BME280;33253;42.144;25.884;2023-02-13T03:07:38;102636.09;;;-3.72;100.00
47524;BME280;33253;42.144;25.884;2023-02-13T03:10:10;102646.78;;;-3.68;100.00
47524;BME280;33253;42.144;25.884;2023-02-13T03:15:43;102638.59;;;-3.60;100.00
47524;BME280;33253;42.144;25.884;2023-02-13T03:18:38;102646.19;;;-3.39;100.00
47524;BME280;33253;42.144;25.884;2023-02-13T03:33:09;102646.38;;;-2.78;98.14
47524;BME280;33253;42.144;25.884;2023-02-13T03:35:54;102650.19;;;-2.74;98.10
47524;BME280;33253;42.144;25.884;2023-02-13T03:46:47;102654.09;;;-2.83;100.00
47524;BME280;33253;42.144;25.884;2023-02-13T03:55:23;102644.63;;;-2.71;100.00
47524;BME280;33253;42.144;25.884;2023-02-13T03:58:14;102650.72;;;-2.77;100.00
47524;BME280;33253;42.144;25.884;2023-02-13T04:01:04;102646.19;;;-2.99;100.00
47524;BME280;33253;42.144;25.884;2023-02-13T04:03:44;102641.72;;;-3.15;100.00
47524;BME280;33253;42.144;25.884;2023-02-13T04:06:15;102637.81;;;-3.46;100.00
47524;BME280;33253;42.144;25.884;2023-02-13T04:08:43;102625.69;;;-3.68;100.00
47524;BME280;33253;42.144;25.884;2023-02-13T04:11:09;102597.97;;;-3.81;100.00
47524;BME280;33253;42.144;25.884;2023-02-13T04:16:44;102643.91;;;-3.97;100.00
47524;BME280;33253;42.144;25.884;2023-02-13T04:19:08;102660.69;;;-4.23;100.00
47524;BME280;33253;42.144;25.884;2023-02-13T04:21:36;102666.94;;;-4.27;100.00
47524;BME280;33253;42.144;25.884;2023-02-13T04:24:03;102663.50;;;-4.40;100.00
47524;BME280;33253;42.144;25.884;2023-02-13T04:26:37;102671.75;;;-4.41;100.00
47524;BME280;33253;42.144;25.884;2023-02-13T04:29:04;102652.91;;;-4.50;100.00
47524;BME280;33253;42.144;25.884;2023-02-13T04:31:30;102660.41;;;-4.45;100.00
47524;BME280;33253;42.144;25.884;2023-02-13T04:33:55;102671.78;;;-4.28;100.00
47524;BME280;33253;42.144;25.884;2023-02-13T04:36:21;102670.38;;;-4.13;100.00
47524;BME280;33253;42.144;25.884;2023-02-13T04:38:46;102663.50;;;-4.01;100.00
47524;BME280;33253;42.144;25.884;2023-02-13T04:41:12;102666.81;;;-3.82;100.00
47524;BME280;33253;42.144;25.884;2023-02-13T04:43:37;102624.84;;;-4.08;100.00
47524;BME280;33253;42.144;25.884;2023-02-13T04:46:03;102681.66;;;-3.91;100.00
47524;BME280;33253;42.144;25.884;2023-02-13T04:48:30;102681.78;;;-4.10;100.00
47524;BME280;33253;42.144;25.884;2023-02-13T04:50:55;102635.47;;;-4.49;100.00
47524;BME280;33253;42.144;25.884;2023-02-13T04:53:21;102677.53;;;-4.29;100.00
47524;BME280;33253;42.144;25.884;2023-02-13T04:55:46;102683.50;;;-4.16;100.00
47524;BME280;33253;42.144;25.884;2023-02-13T04:58:13;102626.19;;;-4.43;100.00
47524;BME280;33253;42.144;25.884;2023-02-13T05:00:39;102679.75;;;-3.99;100.00
47524;BME280;33253;42.144;25.884;2023-02-13T05:03:07;102651.59;;;-4.15;100.00
47524;BME280;33253;42.144;25.884;2023-02-13T05:05:33;102689.53;;;-3.95;100.00
47524;BME280;33253;42.144;25.884;2023-02-13T05:07:59;102697.50;;;-3.92;100.00
47524;BME280;33253;42.144;25.884;2023-02-13T05:10:25;102697.69;;;-3.91;100.00
47524;BME280;33253;42.144;25.884;2023-02-13T05:12:50;102705.69;;;-4.13;100.00
47524;BME280;33253;42.144;25.884;2023-02-13T05:15:16;102715.06;;;-4.25;100.00
47524;BME280;33253;42.144;25.884;2023-02-13T05:17:44;102712.34;;;-4.27;100.00
47524;BME280;33253;42.144;25.884;2023-02-13T05:20:11;102711.34;;;-4.34;100.00
47524;BME280;33253;42.144;25.884;2023-02-13T05:22:37;102715.75;;;-4.26;100.00
47524;BME280;33253;42.144;25.884;2023-02-13T05:25:20;102662.91;;;-4.45;100.00
47524;BME280;33253;42.144;25.884;2023-02-13T05:27:46;102715.16;;;-4.05;100.00
47524;BME280;33253;42.144;25.884;2023-02-13T05:30:12;102710.22;;;-4.11;100.00
47524;BME280;33253;42.144;25.884;2023-02-13T05:32:38;102717.88;;;-4.16;100.00
47524;BME280;33253;42.144;25.884;2023-02-13T05:35:04;102722.38;;;-4.52;100.00
47524;BME280;33253;42.144;25.884;2023-02-13T05:37:30;102717.53;;;-4.64;100.00
47524;BME280;33253;42.144;25.884;2023-02-13T05:39:55;102723.72;;;-4.80;100.00
47524;BME280;33253;42.144;25.884;2023-02-13T05:42:20;102732.00;;;-4.81;100.00
47524;BME280;33253;42.144;25.884;2023-02-13T05:44:46;102728.22;;;-4.72;100.00
47524;BME280;33253;42.144;25.884;2023-02-13T05:47:11;102721.34;;;-4.73;100.00
47524;BME280;33253;42.144;25.884;2023-02-13T05:49:37;102715.38;;;-4.74;100.00
47524;BME280;33253;42.144;25.884;2023-02-13T05:52:02;102729.22;;;-4.64;100.00
47524;BME280;33253;42.144;25.884;2023-02-13T05:54:28;102717.13;;;-4.67;100.00
47524;BME280;33253;42.144;25.884;2023-02-13T05:56:53;102730.88;;;-4.52;100.00
47524;BME280;33253;42.144;25.884;2023-02-13T05:59:18;102689.59;;;-4.78;100.00
47524;BME280;33253;42.144;25.884;2023-02-13T06:01:44;102722.50;;;-4.58;100.00
47524;BME280;33253;42.144;25.884;2023-02-13T06:04:09;102732.25;;;-4.54;100.00
47524;BME280;33253;42.144;25.884;2023-02-13T06:06:35;102726.53;;;-4.53;100.00
47524;BME280;33253;42.144;25.884;2023-02-13T06:09:00;102702.50;;;-4.69;100.00
47524;BME280;33253;42.144;25.884;2023-02-13T06:11:27;102731.56;;;-4.53;100.00
47524;BME280;33253;42.144;25.884;2023-02-13T06:13:52;102715.56;;;-4.53;100.00
47524;BME280;33253;42.144;25.884;2023-02-13T06:16:18;102732.81;;;-4.31;100.00
47524;BME280;33253;42.144;25.884;2023-02-13T06:18:43;102733.34;;;-4.20;100.00
47524;BME280;33253;42.144;25.884;2023-02-13T06:21:09;102685.59;;;-4.45;100.00
47524;BME280;33253;42.144;25.884;2023-02-13T06:23:34;102744.53;;;-4.06;100.00
47524;BME280;33253;42.144;25.884;2023-02-13T06:26:05;102733.25;;;-4.02;100.00
47524;BME280;33253;42.144;25.884;2023-02-13T06:28:31;102750.41;;;-3.99;100.00
47524;BME280;33253;42.144;25.884;2023-02-13T06:30:56;102735.16;;;-3.94;100.00
47524;BME280;33253;42.144;25.884;2023-02-13T06:33:22;102738.16;;;-3.70;100.00
47524;BME280;33253;42.144;25.884;2023-02-13T06:35:47;102739.91;;;-3.31;100.00
47524;BME280;33253;42.144;25.884;2023-02-13T06:38:13;102731.72;;;-3.02;100.00
47524;BME280;33253;42.144;25.884;2023-02-13T06:40:38;102738.09;;;-2.79;100.00
47524;BME280;33253;42.144;25.884;2023-02-13T06:43:05;102729.03;;;-2.84;100.00
47524;BME280;33253;42.144;25.884;2023-02-13T06:45:31;102745.75;;;-2.71;100.00
47524;BME280;33253;42.144;25.884;2023-02-13T06:47:56;102745.69;;;-2.58;100.00
47524;BME280;33253;42.144;25.884;2023-02-13T06:50:22;102748.88;;;-2.39;100.00
47524;BME280;33253;42.144;25.884;2023-02-13T06:52:49;102737.84;;;-2.20;100.00
47524;BME280;33253;42.144;25.884;2023-02-13T06:55:15;102759.19;;;-1.90;99.08
47524;BME280;33253;42.144;25.884;2023-02-13T06:57:44;102751.47;;;-1.77;98.67
47524;BME280;33253;42.144;25.884;2023-02-13T07:00:11;102741.38;;;-1.70;98.72
47524;BME280;33253;42.144;25.884;2023-02-13T07:02:38;102733.44;;;-1.66;97.75
47524;BME280;33253;42.144;25.884;2023-02-13T07:05:06;102761.69;;;-1.56;96.07
47524;BME280;33253;42.144;25.884;2023-02-13T07:07:33;102761.31;;;-1.59;96.10
47524;BME280;33253;42.144;25.884;2023-02-13T07:09:59;102753.41;;;-1.48;97.22
47524;BME280;33253;42.144;25.884;2023-02-13T07:12:24;102751.78;;;-1.54;97.20
47524;BME280;33253;42.144;25.884;2023-02-13T07:14:50;102756.38;;;-1.30;98.07
47524;BME280;33253;42.144;25.884;2023-02-13T07:17:15;102756.63;;;-1.07;97.72
47524;BME280;33253;42.144;25.884;2023-02-13T07:19:41;102766.25;;;-0.97;95.69
47524;BME280;33253;42.144;25.884;2023-02-13T07:22:06;102766.91;;;-1.12;96.34
47524;BME280;33253;42.144;25.884;2023-02-13T07:24:32;102754.63;;;-1.09;97.36
47524;BME280;33253;42.144;25.884;2023-02-13T07:26:59;102752.72;;;-0.76;96.82
47524;BME280;33253;42.144;25.884;2023-02-13T07:29:25;102751.44;;;-0.51;94.91
47524;BME280;33253;42.144;25.884;2023-02-13T07:31:50;102747.25;;;-0.28;94.13
47524;BME280;33253;42.144;25.884;2023-02-13T07:34:16;102753.94;;;-0.07;93.54
47524;BME280;33253;42.144;25.884;2023-02-13T07:36:41;102738.50;;;-0.02;92.90
47524;BME280;33253;42.144;25.884;2023-02-13T07:39:07;102733.56;;;0.14;93.80
47524;BME280;33253;42.144;25.884;2023-02-13T07:41:32;102722.97;;;0.33;93.35
47524;BME280;33253;42.144;25.884;2023-02-13T07:43:57;102718.06;;;0.35;92.92
47524;BME280;33253;42.144;25.884;2023-02-13T07:46:23;102718.28;;;0.29;93.50
47524;BME280;33253;42.144;25.884;2023-02-13T07:48:51;102678.06;;;0.10;95.08
47524;BME280;33253;42.144;25.884;2023-02-13T07:51:16;102717.31;;;0.43;95.86
47524;BME280;33253;42.144;25.884;2023-02-13T07:53:41;102628.91;;;0.10;95.12
47524;BME280;33253;42.144;25.884;2023-02-13T07:56:08;102666.09;;;0.47;94.35
47524;BME280;33253;42.144;25.884;2023-02-13T07:58:35;102706.38;;;0.89;90.74
47524;BME280;33253;42.144;25.884;2023-02-13T08:01:11;102700.44;;;1.04;88.62
47524;BME280;33253;42.144;25.884;2023-02-13T08:03:37;102700.91;;;1.16;85.85
47524;BME280;33253;42.144;25.884;2023-02-13T08:06:03;102693.44;;;1.18;84.48
47524;BME280;33253;42.144;25.884;2023-02-13T08:08:29;102707.25;;;1.36;83.50
47524;BME280;33253;42.144;25.884;2023-02-13T08:10:55;102708.88;;;1.42;82.93
47524;BME280;33253;42.144;25.884;2023-02-13T08:13:40;102715.56;;;1.42;81.31
47524;BME280;33253;42.144;25.884;2023-02-13T08:16:07;102713.72;;;1.48;79.56
47524;BME280;33253;42.144;25.884;2023-02-13T08:18:33;102702.22;;;1.52;78.34
47524;BME280;33253;42.144;25.884;2023-02-13T08:21:01;102699.63;;;1.59;78.75
47524;BME280;33253;42.144;25.884;2023-02-13T08:23:27;102696.28;;;1.67;78.81
47524;BME280;33253;42.144;25.884;2023-02-13T08:25:52;102682.78;;;1.68;80.28
47524;BME280;33253;42.144;25.884;2023-02-13T08:28:17;102694.28;;;1.81;78.83
47524;BME280;33253;42.144;25.884;2023-02-13T08:30:43;102689.22;;;1.97;78.61
47524;BME280;33253;42.144;25.884;2023-02-13T08:33:08;102679.75;;;2.12;78.10
47524;BME280;33253;42.144;25.884;2023-02-13T08:35:34;102678.13;;;2.28;76.34
47524;BME280;33253;42.144;25.884;2023-02-13T08:38:03;102632.81;;;2.25;75.12
47524;BME280;33253;42.144;25.884;2023-02-13T08:40:30;102621.94;;;2.35;73.88
47524;BME280;33253;42.144;25.884;2023-02-13T08:43:03;102666.47;;;2.80;73.97
47524;BME280;33253;42.144;25.884;2023-02-13T08:45:30;102657.50;;;2.83;72.41
47524;BME280;33253;42.144;25.884;2023-02-13T08:47:57;102671.66;;;2.97;71.41
47524;BME280;33253;42.144;25.884;2023-02-13T08:50:23;102636.81;;;2.89;71.21
47524;BME280;33253;42.144;25.884;2023-02-13T08:52:49;102662.03;;;3.19;69.82
47524;BME280;33253;42.144;25.884;2023-02-13T08:55:14;102666.25;;;3.28;66.61
47524;BME280;33253;42.144;25.884;2023-02-13T08:57:40;102660.28;;;3.36;64.09
47524;BME280;33253;42.144;25.884;2023-02-13T09:00:06;102640.91;;;3.29;62.39
47524;BME280;33253;42.144;25.884;2023-02-13T09:02:31;102645.00;;;3.53;62.54
47524;BME280;33253;42.144;25.884;2023-02-13T09:04:56;102654.06;;;3.76;63.02
47524;BME280;33253;42.144;25.884;2023-02-13T09:07:22;102661.13;;;3.79;60.11
47524;BME280;33253;42.144;25.884;2023-02-13T09:09:47;102665.50;;;3.88;59.20
47524;BME280;33253;42.144;25.884;2023-02-13T09:12:13;102611.97;;;3.72;58.59
47524;BME280;33253;42.144;25.884;2023-02-13T09:14:38;102655.47;;;4.16;57.54
47524;BME280;33253;42.144;25.884;2023-02-13T09:17:04;102651.56;;;4.29;54.00
47524;BME280;33253;42.144;25.884;2023-02-13T09:19:29;102644.78;;;4.20;51.59
47524;BME280;33253;42.144;25.884;2023-02-13T09:21:55;102654.72;;;4.26;52.25
47524;BME280;33253;42.144;25.884;2023-02-13T09:24:20;102651.97;;;4.33;51.48
47524;BME280;33253;42.144;25.884;2023-02-13T09:26:45;102603.13;;;4.21;52.33
47524;BME280;33253;42.144;25.884;2023-02-13T09:29:11;102633.03;;;4.49;52.22
47524;BME280;33253;42.144;25.884;2023-02-13T09:31:36;102642.31;;;4.66;52.87
47524;BME280;33253;42.144;25.884;2023-02-13T09:34:02;102600.53;;;4.48;53.03
47524;BME280;33253;42.144;25.884;2023-02-13T09:36:27;102630.84;;;4.80;53.88
47524;BME280;33253;42.144;25.884;2023-02-13T09:38:56;102617.72;;;4.85;54.56
47524;BME280;33253;42.144;25.884;2023-02-13T09:41:34;102618.09;;;5.08;54.46
47524;BME280;33253;42.144;25.884;2023-02-13T09:49:52;102593.22;;;5.34;53.91
47524;BME280;33253;42.144;25.884;2023-02-13T09:52:19;102595.41;;;5.49;55.50
47524;BME280;33253;42.144;25.884;2023-02-13T09:54:44;102588.47;;;5.48;55.36
47524;BME280;33253;42.144;25.884;2023-02-13T10:03:34;102579.41;;;5.98;54.21
47524;BME280;33253;42.144;25.884;2023-02-13T10:06:05;102572.94;;;6.12;53.91
47524;BME280;33253;42.144;25.884;2023-02-13T10:09:05;102565.66;;;6.17;52.99
47524;BME280;33253;42.144;25.884;2023-02-13T10:11:44;102557.59;;;6.23;54.09
47524;BME280;33253;42.144;25.884;2023-02-13T10:17:30;102551.69;;;6.53;52.22
47524;BME280;33253;42.144;25.884;2023-02-13T10:22:51;102541.81;;;6.58;51.78
47524;BME280;33253;42.144;25.884;2023-02-13T10:25:27;102534.47;;;6.42;51.86
47524;BME280;33253;42.144;25.884;2023-02-13T10:27:57;102532.69;;;6.51;51.29
47524;BME280;33253;42.144;25.884;2023-02-13T10:30:31;102518.88;;;6.59;52.35
47524;BME280;33253;42.144;25.884;2023-02-13T10:33:10;102517.84;;;6.68;51.56
47524;BME280;33253;42.144;25.884;2023-02-13T10:38:42;102501.31;;;6.74;54.28
47524;BME280;33253;42.144;25.884;2023-02-13T10:51:44;102451.91;;;6.77;51.02
47524;BME280;33253;42.144;25.884;2023-02-13T10:54:19;102480.88;;;7.27;50.97
47524;BME280;33253;42.144;25.884;2023-02-13T10:57:02;102473.84;;;7.04;51.57
47524;BME280;33253;42.144;25.884;2023-02-13T10:59:33;102466.00;;;7.23;52.91
47524;BME280;33253;42.144;25.884;2023-02-13T11:04:42;102434.28;;;7.12;51.09
47524;BME280;33253;42.144;25.884;2023-02-13T11:07:13;102408.75;;;6.93;52.14
47524;BME280;33253;42.144;25.884;2023-02-13T11:09:41;102450.78;;;7.47;51.39
47524;BME280;33253;42.144;25.884;2023-02-13T11:12:24;102445.34;;;7.65;51.32
47524;BME280;33253;42.144;25.884;2023-02-13T11:15:01;102433.59;;;7.78;50.81
47524;BME280;33253;42.144;25.884;2023-02-13T11:17:30;102425.66;;;7.75;52.58
47524;BME280;33253;42.144;25.884;2023-02-13T11:19:59;102425.59;;;7.86;54.08
47524;BME280;33253;42.144;25.884;2023-02-13T11:22:37;102419.88;;;8.00;51.14
47524;BME280;33253;42.144;25.884;2023-02-13T11:25:21;102421.38;;;7.76;51.02
47524;BME280;33253;42.144;25.884;2023-02-13T11:27:49;102418.50;;;7.61;51.94
47524;BME280;33253;42.144;25.884;2023-02-13T11:30:34;102406.38;;;7.70;52.67
47524;BME280;33253;42.144;25.884;2023-02-13T11:33:05;102406.25;;;8.01;53.47
47524;BME280;33253;42.144;25.884;2023-02-13T11:35:35;102376.28;;;8.02;51.22
47524;BME280;33253;42.144;25.884;2023-02-13T11:38:27;102394.75;;;7.53;52.83
47524;BME280;33253;42.144;25.884;2023-02-13T11:41:06;102392.06;;;7.84;52.20
47524;BME280;33253;42.144;25.884;2023-02-13T11:43:35;102386.19;;;8.19;51.06
47524;BME280;33253;42.144;25.884;2023-02-13T11:46:07;102382.56;;;8.28;50.92
47524;BME280;33253;42.144;25.884;2023-02-13T11:48:36;102384.28;;;8.17;52.17
47524;BME280;33253;42.144;25.884;2023-02-13T11:51:02;102372.25;;;8.28;53.58
47524;BME280;33253;42.144;25.884;2023-02-13T11:53:36;102377.78;;;8.44;51.86
47524;BME280;33253;42.144;25.884;2023-02-13T11:56:11;102378.91;;;8.70;52.23
47524;BME280;33253;42.144;25.884;2023-02-13T11:58:38;102362.03;;;8.85;51.50
47524;BME280;33253;42.144;25.884;2023-02-13T12:01:23;102366.97;;;9.06;50.51
47524;BME280;33253;42.144;25.884;2023-02-13T12:04:03;102322.72;;;9.00;49.80
47524;BME280;33253;42.144;25.884;2023-02-13T12:06:30;102359.34;;;8.96;50.58
47524;BME280;33253;42.144;25.884;2023-02-13T12:08:56;102355.78;;;8.94;50.06
47524;BME280;33253;42.144;25.884;2023-02-13T12:11:46;102340.72;;;8.64;51.20
47524;BME280;33253;42.144;25.884;2023-02-13T12:14:14;102345.91;;;8.76;50.62
47524;BME280;33253;42.144;25.884;2023-02-13T12:16:51;102342.44;;;8.87;49.48
47524;BME280;33253;42.144;25.884;2023-02-13T12:19:24;102344.22;;;9.00;49.28
47524;BME280;33253;42.144;25.884;2023-02-13T12:22:16;102343.00;;;8.95;50.20
47524;BME280;33253;42.144;25.884;2023-02-13T12:25:12;102341.19;;;8.94;52.04
47524;BME280;33253;42.144;25.884;2023-02-13T12:41:14;102305.13;;;8.70;49.25
47524;BME280;33253;42.144;25.884;2023-02-13T13:18:30;102291.31;;;8.12;50.58
47524;BME280;33253;42.144;25.884;2023-02-13T13:24:17;102279.38;;;8.24;51.45
47524;BME280;33253;42.144;25.884;2023-02-13T13:26:49;102280.84;;;8.33;51.70
47524;BME280;33253;42.144;25.884;2023-02-13T13:29:22;102279.84;;;8.31;51.73
47524;BME280;33253;42.144;25.884;2023-02-13T13:32:00;102279.94;;;8.32;51.18
47524;BME280;33253;42.144;25.884;2023-02-13T13:34:26;102276.06;;;8.37;51.47
47524;BME280;33253;42.144;25.884;2023-02-13T13:36:58;102266.53;;;8.36;51.24
47524;BME280;33253;42.144;25.884;2023-02-13T13:50:17;102262.53;;;8.40;50.10
47524;BME280;33253;42.144;25.884;2023-02-13T13:53:05;102260.44;;;8.46;49.29
47524;BME280;33253;42.144;25.884;2023-02-13T13:58:36;102251.25;;;8.50;51.26
47524;BME280;33253;42.144;25.884;2023-02-13T14:01:26;102247.34;;;8.55;49.64
47524;BME280;33253;42.144;25.884;2023-02-13T14:04:36;102220.75;;;8.32;50.54
47524;BME280;33253;42.144;25.884;2023-02-13T14:11:51;102244.63;;;8.41;50.79
47524;BME280;33253;42.144;25.884;2023-02-13T14:16:56;102231.75;;;8.41;50.54
47524;BME280;33253;42.144;25.884;2023-02-13T14:19:31;102185.09;;;8.25;50.86
47524;BME280;33253;42.144;25.884;2023-02-13T14:24:51;102228.22;;;8.51;50.04
47524;BME280;33253;42.144;25.884;2023-02-13T14:27:29;102228.22;;;8.51;50.17
47524;BME280;33253;42.144;25.884;2023-02-13T14:29:56;102221.03;;;8.47;50.11
47524;BME280;33253;42.144;25.884;2023-02-13T14:34:57;102211.53;;;8.58;50.13
47524;BME280;33253;42.144;25.884;2023-02-13T14:37:35;102213.31;;;8.59;49.88
47524;BME280;33253;42.144;25.884;2023-02-13T14:42:45;102206.38;;;8.82;50.18
47524;BME280;33253;42.144;25.884;2023-02-13T14:45:15;102205.78;;;8.86;50.82
47524;BME280;33253;42.144;25.884;2023-02-13T14:47:45;102212.97;;;8.90;52.31
47524;BME280;33253;42.144;25.884;2023-02-13T14:50:27;102209.28;;;8.74;49.98
47524;BME280;33253;42.144;25.884;2023-02-13T14:52:54;102201.78;;;8.66;49.83
47524;BME280;33253;42.144;25.884;2023-02-13T14:55:37;102190.94;;;8.58;49.86
47524;BME280;33253;42.144;25.884;2023-02-13T14:58:27;102211.09;;;8.64;50.10
47524;BME280;33253;42.144;25.884;2023-02-13T15:01:06;102206.72;;;8.63;50.24
47524;BME280;33253;42.144;25.884;2023-02-13T15:03:49;102197.97;;;8.61;54.08
47524;BME280;33253;42.144;25.884;2023-02-13T15:06:54;102202.34;;;8.62;53.56
47524;BME280;33253;42.144;25.884;2023-02-13T15:09:29;102192.84;;;8.61;54.59
47524;BME280;33253;42.144;25.884;2023-02-13T15:11:57;102202.34;;;8.62;53.53
47524;BME280;33253;42.144;25.884;2023-02-13T15:14:34;102201.56;;;8.63;53.80
47524;BME280;33253;42.144;25.884;2023-02-13T15:17:18;102200.56;;;8.61;52.91
47524;BME280;33253;42.144;25.884;2023-02-13T15:19:46;102196.31;;;8.61;54.08
47524;BME280;33253;42.144;25.884;2023-02-13T15:22:31;102194.28;;;8.57;54.80
47524;BME280;33253;42.144;25.884;2023-02-13T15:24:58;102110.47;;;8.01;54.26
47524;BME280;33253;42.144;25.884;2023-02-13T15:30:16;102194.41;;;8.58;55.04
47524;BME280;33253;42.144;25.884;2023-02-13T15:32:43;102195.75;;;8.53;55.36
47524;BME280;33253;42.144;25.884;2023-02-13T15:35:24;102177.03;;;8.44;55.16
47524;BME280;33253;42.144;25.884;2023-02-13T15:37:50;102068.28;;;7.75;56.09
47524;BME280;33253;42.144;25.884;2023-02-13T15:40:27;102184.66;;;8.42;54.64
47524;BME280;33253;42.144;25.884;2023-02-13T15:42:54;102182.97;;;8.31;56.27
47524;BME280;33253;42.144;25.884;2023-02-13T15:45:21;102189.88;;;8.20;54.65
47524;BME280;33253;42.144;25.884;2023-02-13T15:47:50;102180.94;;;8.15;54.56
47524;BME280;33253;42.144;25.884;2023-02-13T15:52:49;102185.56;;;7.85;53.85
47524;BME280;33253;42.144;25.884;2023-02-13T15:55:26;102175.59;;;7.78;53.69
47524;BME280;33253;42.144;25.884;2023-02-13T15:57:53;102185.22;;;7.81;54.27
47524;BME280;33253;42.144;25.884;2023-02-13T16:00:25;102200.28;;;7.76;54.53